createdAt,value
2017-09-19T00:00:46.609Z,95.30
2017-09-19T00:03:15.651Z,95.00
2017-09-19T00:05:43.897Z,95.00
2017-09-19T00:08:12.204Z,94.80
2017-09-19T00:10:40.451Z,94.70
2017-09-19T00:13:09.494Z,94.60
2017-09-19T00:15:37.738Z,94.60
2017-09-19T00:18:06.760Z,94.60
2017-09-19T00:20:35.039Z,94.60
2017-09-19T00:23:03.335Z,94.70
2017-09-19T00:25:31.579Z,94.50
2017-09-19T00:27:59.889Z,94.10
2017-09-19T00:30:28.149Z,94.00
2017-09-19T00:32:57.169Z,93.90
2017-09-19T00:35:25.425Z,94.00
2017-09-19T00:37:53.684Z,94.10
2017-09-19T00:40:22.697Z,94.30
2017-09-19T00:42:50.966Z,94.20
2017-09-19T00:45:19.979Z,94.40
2017-09-19T00:47:48.292Z,94.40
2017-09-19T00:50:16.579Z,94.30
2017-09-19T00:52:44.993Z,94.40
2017-09-19T00:55:13.259Z,94.60
2017-09-19T00:57:41.611Z,95.00
2017-09-19T01:00:09.915Z,94.60
2017-09-19T01:02:38.163Z,94.70
2017-09-19T01:05:06.455Z,94.80
2017-09-19T01:07:34.730Z,94.70
2017-09-19T01:10:02.998Z,94.70
2017-09-19T01:12:31.300Z,94.60
2017-09-19T01:14:59.553Z,94.70
2017-09-19T01:17:28.752Z,94.80
2017-09-19T01:19:57.060Z,94.80
2017-09-19T01:22:25.306Z,94.90
2017-09-19T01:24:53.635Z,95.00
2017-09-19T01:27:21.886Z,95.10
2017-09-19T01:29:50.154Z,95.00
2017-09-19T01:32:18.460Z,95.00
2017-09-19T01:34:46.755Z,95.00
2017-09-19T01:37:14.993Z,95.00
2017-09-19T01:39:44.029Z,95.10
2017-09-19T01:42:12.301Z,95.10
2017-09-19T01:44:40.591Z,94.90
2017-09-19T01:47:08.854Z,95.00
2017-09-19T01:49:37.121Z,94.90
2017-09-19T01:52:05.372Z,94.90
2017-09-19T01:54:33.731Z,94.80
2017-09-19T01:57:02.775Z,94.90
2017-09-19T01:59:31.794Z,94.90
2017-09-19T02:02:00.083Z,94.90
2017-09-19T02:04:28.331Z,94.90
2017-09-19T02:06:57.364Z,95.00
2017-09-19T02:09:25.620Z,94.90
2017-09-19T02:11:53.881Z,95.00
2017-09-19T02:14:22.903Z,95.10
2017-09-19T02:16:52.123Z,95.10
2017-09-19T02:19:20.366Z,95.20
2017-09-19T02:21:49.399Z,95.30
2017-09-19T02:24:17.652Z,95.30
2017-09-19T02:26:46.678Z,95.80
2017-09-19T02:29:14.970Z,95.70
2017-09-19T02:31:43.246Z,95.80
2017-09-19T02:34:11.538Z,95.90
2017-09-19T02:36:39.790Z,96.00
2017-09-19T02:39:08.100Z,96.10
2017-09-19T02:41:36.367Z,96.10
2017-09-19T02:44:04.654Z,96.20
2017-09-19T02:46:32.915Z,96.20
2017-09-19T02:49:01.158Z,96.30
2017-09-19T02:51:29.495Z,96.40
2017-09-19T02:53:57.744Z,96.50
2017-09-19T02:56:26.763Z,96.60
2017-09-19T02:58:55.011Z,96.60
2017-09-19T03:01:24.049Z,96.70
2017-09-19T03:03:52.315Z,96.70
2017-09-19T03:06:20.574Z,96.50
2017-09-19T03:08:49.658Z,96.20
2017-09-19T03:11:17.928Z,96.20
2017-09-19T03:13:46.210Z,96.00
2017-09-19T03:16:14.593Z,96.10
2017-09-19T03:18:42.842Z,96.10
2017-09-19T03:21:11.127Z,96.10
2017-09-19T03:23:39.383Z,96.00
2017-09-19T03:26:07.632Z,96.00
2017-09-19T03:28:36.680Z,96.00
2017-09-19T03:31:04.948Z,96.00
2017-09-19T03:33:33.227Z,96.00
2017-09-19T03:36:01.455Z,96.10
2017-09-19T03:38:30.312Z,96.10
2017-09-19T03:40:58.561Z,96.10
2017-09-19T03:43:26.819Z,96.10
2017-09-19T03:45:55.856Z,95.90
2017-09-19T03:48:24.112Z,96.30
2017-09-19T03:50:53.130Z,95.80
2017-09-19T03:53:21.423Z,95.70
2017-09-19T03:55:49.708Z,95.60
2017-09-19T03:58:17.976Z,95.60
2017-09-19T04:00:46.228Z,95.70
2017-09-19T04:03:15.267Z,95.90
2017-09-19T04:05:43.515Z,95.80
2017-09-19T04:08:12.538Z,96.00
2017-09-19T04:10:40.788Z,95.90
2017-09-19T04:13:09.818Z,96.10
2017-09-19T04:15:38.060Z,96.10
2017-09-19T04:18:07.093Z,96.00
2017-09-19T04:20:35.378Z,96.00
2017-09-19T04:23:03.651Z,96.00
2017-09-19T04:25:32.667Z,95.90
2017-09-19T04:28:00.927Z,95.90
2017-09-19T04:30:29.229Z,95.90
2017-09-19T04:32:58.230Z,95.80
2017-09-19T04:35:26.491Z,95.90
2017-09-19T04:37:54.747Z,95.80
2017-09-19T04:40:23.816Z,95.80
2017-09-19T04:42:52.036Z,95.80
2017-09-19T04:45:20.294Z,95.80
2017-09-19T04:47:49.306Z,95.90
2017-09-19T04:50:17.567Z,95.90
2017-09-19T04:52:46.600Z,96.10
2017-09-19T04:55:14.895Z,96.00
2017-09-19T04:57:43.181Z,96.10
2017-09-19T05:00:11.970Z,96.20
2017-09-19T05:02:40.252Z,96.30
2017-09-19T05:05:08.531Z,96.20
2017-09-19T05:07:36.783Z,96.20
2017-09-19T05:10:05.050Z,96.20
2017-09-19T05:12:34.078Z,96.10
2017-09-19T05:15:02.378Z,96.10
2017-09-19T05:17:30.622Z,96.10
2017-09-19T05:19:58.877Z,96.10
2017-09-19T05:22:27.218Z,96.20
2017-09-19T05:24:55.483Z,96.20
2017-09-19T05:27:24.084Z,96.30
2017-09-19T05:29:52.340Z,96.40
2017-09-19T05:32:20.586Z,96.40
2017-09-19T05:34:49.650Z,96.60
2017-09-19T05:37:17.912Z,96.60
2017-09-19T05:39:46.169Z,96.60
2017-09-19T05:42:15.191Z,96.30
2017-09-19T05:44:43.433Z,96.30
2017-09-19T05:47:12.475Z,96.30
2017-09-19T05:49:40.802Z,96.30
2017-09-19T05:52:11.181Z,96.40
2017-09-19T05:54:39.809Z,96.40
2017-09-19T05:57:09.731Z,96.60
2017-09-19T05:59:38.096Z,96.40
2017-09-19T06:02:06.496Z,96.20
2017-09-19T06:04:34.756Z,96.20
2017-09-19T06:07:03.035Z,96.20
2017-09-19T06:09:35.029Z,96.10
2017-09-19T06:12:03.363Z,96.10
2017-09-19T06:14:31.648Z,96.10
2017-09-19T06:16:59.952Z,96.00
2017-09-19T06:19:28.220Z,96.20
2017-09-19T06:21:56.477Z,95.90
2017-09-19T06:24:24.720Z,96.00
2017-09-19T06:26:53.790Z,96.10
2017-09-19T06:29:22.063Z,95.90
2017-09-19T06:31:50.335Z,95.80
2017-09-19T06:34:18.619Z,95.80
2017-09-19T06:36:46.883Z,95.80
2017-09-19T06:39:15.137Z,95.80
2017-09-19T06:41:44.155Z,95.80
2017-09-19T06:44:12.507Z,95.70
2017-09-19T06:46:40.812Z,95.50
2017-09-19T06:49:09.863Z,95.40
2017-09-19T06:51:38.101Z,95.50
2017-09-19T06:54:06.409Z,95.30
2017-09-19T06:56:34.654Z,95.50
2017-09-19T06:59:02.961Z,95.30
2017-09-19T07:01:31.186Z,95.30
2017-09-19T07:03:59.518Z,95.30
2017-09-19T07:06:28.221Z,95.10
2017-09-19T07:08:57.352Z,95.10
2017-09-19T07:11:26.560Z,94.90
2017-09-19T07:13:55.451Z,94.90
2017-09-19T07:16:24.043Z,94.70
2017-09-19T07:18:53.357Z,94.90
2017-09-19T07:21:22.512Z,94.50
2017-09-19T07:23:50.864Z,94.50
2017-09-19T07:26:19.901Z,93.80
2017-09-19T07:28:48.205Z,93.70
2017-09-19T07:31:16.457Z,93.20
2017-09-19T07:33:44.720Z,93.00
2017-09-19T07:36:12.971Z,92.30
2017-09-19T07:38:41.235Z,91.30
2017-09-19T07:41:09.575Z,90.00
2017-09-19T07:43:37.866Z,88.00
2017-09-19T07:46:06.122Z,87.40
2017-09-19T07:48:34.451Z,87.00
2017-09-19T07:51:02.948Z,86.20
2017-09-19T07:53:31.946Z,86.00
2017-09-19T07:56:00.351Z,86.10
2017-09-19T07:58:29.431Z,85.10
2017-09-19T08:00:57.676Z,85.10
2017-09-19T08:03:25.953Z,85.60
2017-09-19T08:05:54.243Z,85.70
2017-09-19T08:08:22.550Z,86.10
2017-09-19T08:10:50.894Z,86.50
2017-09-19T08:13:19.191Z,86.90
2017-09-19T08:15:48.058Z,86.90
2017-09-19T08:18:16.306Z,87.10
2017-09-19T08:20:45.334Z,87.80
2017-09-19T08:23:13.575Z,87.80
2017-09-19T08:25:41.915Z,87.70
2017-09-19T08:28:10.154Z,87.90
2017-09-19T08:30:39.192Z,88.10
2017-09-19T08:33:07.429Z,88.10
2017-09-19T08:35:36.511Z,87.80
2017-09-19T08:38:04.730Z,87.80
2017-09-19T08:40:32.991Z,87.70
2017-09-19T08:43:02.069Z,87.70
2017-09-19T08:45:30.416Z,87.70
2017-09-19T08:47:58.694Z,87.60
2017-09-19T08:50:26.955Z,87.50
2017-09-19T08:52:55.266Z,86.90
2017-09-19T08:55:23.536Z,86.50
2017-09-19T08:57:51.815Z,87.00
2017-09-19T09:00:20.087Z,87.20
2017-09-19T09:02:48.387Z,86.00
2017-09-19T09:05:16.643Z,84.50
2017-09-19T09:07:45.650Z,80.50
2017-09-19T09:10:13.946Z,80.50
2017-09-19T09:12:42.196Z,76.50
2017-09-19T09:15:11.203Z,74.60
2017-09-19T09:17:39.516Z,74.70
2017-09-19T09:20:07.780Z,73.60
2017-09-19T09:22:36.420Z,71.90
2017-09-19T09:25:05.421Z,70.90
2017-09-19T09:27:34.034Z,70.20
2017-09-19T09:30:03.083Z,71.00
2017-09-19T09:32:31.366Z,70.90
2017-09-19T09:34:59.646Z,69.50
2017-09-19T09:37:27.900Z,68.60
2017-09-19T09:39:56.162Z,67.50
2017-09-19T09:42:25.187Z,67.10
2017-09-19T09:44:53.505Z,67.10
2017-09-19T09:47:21.849Z,65.00
2017-09-19T09:49:50.663Z,64.00
2017-09-19T09:52:19.277Z,63.40
2017-09-19T09:54:47.695Z,62.90
2017-09-19T09:57:15.991Z,62.80
2017-09-19T09:59:44.240Z,61.00
2017-09-19T10:02:13.283Z,60.00
2017-09-19T10:04:41.551Z,60.00
2017-09-19T10:07:09.817Z,59.50
2017-09-19T10:09:38.117Z,60.90
2017-09-19T10:12:06.377Z,62.40
2017-09-19T10:14:34.644Z,62.60
2017-09-19T10:17:03.664Z,65.10
2017-09-19T10:19:31.958Z,65.10
2017-09-19T10:22:00.235Z,66.00
2017-09-19T10:24:28.480Z,64.60
2017-09-19T10:26:57.519Z,65.70
2017-09-19T10:29:25.798Z,65.60
2017-09-19T10:31:54.052Z,66.20
2017-09-19T10:34:23.586Z,68.80
2017-09-19T10:36:51.869Z,68.80
2017-09-19T10:39:20.122Z,69.70
2017-09-19T10:41:49.141Z,70.80
2017-09-19T10:44:17.382Z,70.80
2017-09-19T10:46:45.629Z,71.20
2017-09-19T10:49:14.000Z,72.40
2017-09-19T10:51:42.313Z,70.60
2017-09-19T10:54:19.174Z,68.90
2017-09-19T10:56:47.418Z,67.80
2017-09-19T10:59:16.454Z,67.30
2017-09-19T11:01:44.709Z,67.20
2017-09-19T11:04:12.985Z,67.80
2017-09-19T11:06:41.278Z,68.20
2017-09-19T11:09:09.542Z,68.10
2017-09-19T11:11:37.843Z,68.90
2017-09-19T11:14:06.105Z,69.10
2017-09-19T11:16:34.355Z,69.20
2017-09-19T11:19:02.613Z,69.30
2017-09-19T11:21:30.869Z,69.20
2017-09-19T11:23:59.134Z,69.40
2017-09-19T11:26:27.419Z,69.80
2017-09-19T11:28:55.698Z,70.00
2017-09-19T11:31:24.975Z,70.30
2017-09-19T11:33:54.011Z,70.40
2017-09-19T11:36:22.255Z,70.30
2017-09-19T11:38:51.273Z,70.60
2017-09-19T11:41:19.530Z,70.60
2017-09-19T11:43:48.547Z,70.90
2017-09-19T11:46:16.838Z,70.90
2017-09-19T11:48:45.103Z,71.00
2017-09-19T11:51:13.381Z,70.80
2017-09-19T11:53:42.446Z,73.10
2017-09-19T11:56:10.691Z,73.10
2017-09-19T11:58:38.982Z,74.60
2017-09-19T12:01:07.223Z,75.10
2017-09-19T12:03:36.251Z,76.10
2017-09-19T12:06:05.285Z,76.80
2017-09-19T12:08:33.630Z,76.70
2017-09-19T12:11:02.362Z,77.70
2017-09-19T12:13:30.703Z,79.10
2017-09-19T12:15:58.962Z,79.90
2017-09-19T12:18:27.270Z,81.30
2017-09-19T12:20:56.307Z,80.30
2017-09-19T12:23:24.558Z,80.30
2017-09-19T12:25:52.822Z,82.30
2017-09-19T12:28:21.062Z,83.20
2017-09-19T12:30:50.131Z,84.30
2017-09-19T12:33:18.372Z,84.30
2017-09-19T12:35:46.618Z,84.20
2017-09-19T12:38:15.667Z,83.80
2017-09-19T12:40:44.360Z,83.00
2017-09-19T12:43:12.595Z,81.00
2017-09-19T12:45:41.620Z,82.70
2017-09-19T12:48:09.865Z,82.70
2017-09-19T12:50:38.123Z,82.80
2017-09-19T12:53:06.366Z,85.00
2017-09-19T12:55:34.671Z,85.80
2017-09-19T12:58:03.070Z,84.70
2017-09-19T13:00:31.343Z,84.00
2017-09-19T13:02:59.588Z,84.80
2017-09-19T13:05:27.825Z,84.80
2017-09-19T13:07:56.192Z,86.70
2017-09-19T13:10:24.430Z,85.60
2017-09-19T13:12:53.547Z,85.50
2017-09-19T13:15:21.783Z,85.50
2017-09-19T13:17:50.114Z,85.90
2017-09-19T13:20:18.350Z,85.80
2017-09-19T13:22:47.395Z,84.70
2017-09-19T13:25:15.651Z,84.70
2017-09-19T13:27:43.926Z,82.10
2017-09-19T13:30:12.933Z,80.00
2017-09-19T13:32:53.967Z,79.70
2017-09-19T13:35:22.203Z,79.70
2017-09-19T13:37:50.503Z,77.80
2017-09-19T13:40:18.794Z,77.30
2017-09-19T13:42:47.065Z,76.30
2017-09-19T13:45:15.305Z,75.70
2017-09-19T13:47:44.323Z,74.90
2017-09-19T13:50:12.622Z,74.80
2017-09-19T13:52:40.937Z,73.60
2017-09-19T13:55:09.199Z,73.20
2017-09-19T13:57:38.165Z,72.60
2017-09-19T14:00:07.164Z,73.50
2017-09-19T14:02:35.424Z,73.50
2017-09-19T14:05:04.449Z,73.90
2017-09-19T14:07:32.711Z,73.80
2017-09-19T14:10:01.140Z,70.70
2017-09-19T14:12:29.380Z,70.30
2017-09-19T14:14:58.532Z,68.90
2017-09-19T14:17:26.800Z,68.70
2017-09-19T14:19:55.028Z,68.10
2017-09-19T14:22:24.042Z,70.00
2017-09-19T14:24:52.346Z,70.00
2017-09-19T14:27:20.623Z,69.60
2017-09-19T14:29:48.906Z,70.60
2017-09-19T14:32:17.150Z,71.10
2017-09-19T14:34:46.175Z,72.20
2017-09-19T14:37:14.415Z,72.20
2017-09-19T14:39:44.179Z,72.90
2017-09-19T14:42:12.467Z,72.90
2017-09-19T14:44:40.738Z,71.80
2017-09-19T14:47:09.066Z,71.80
2017-09-19T14:49:37.292Z,71.80
2017-09-19T14:52:05.593Z,71.40
2017-09-19T14:54:33.863Z,71.40
2017-09-19T14:57:02.087Z,71.80
2017-09-19T14:59:30.350Z,71.60
2017-09-19T15:01:58.581Z,72.90
2017-09-19T15:04:27.603Z,72.60
2017-09-19T15:06:55.885Z,72.60
2017-09-19T15:09:24.146Z,72.30
2017-09-19T15:11:52.446Z,72.30
2017-09-19T15:14:20.713Z,72.90
2017-09-19T15:16:49.027Z,73.00
2017-09-19T15:19:17.268Z,74.10
2017-09-19T15:21:46.281Z,76.50
2017-09-19T15:24:14.530Z,76.40
2017-09-19T15:26:43.605Z,77.30
2017-09-19T15:29:11.837Z,77.20
2017-09-19T15:31:40.132Z,77.70
2017-09-19T15:34:08.373Z,76.90
2017-09-19T15:36:37.411Z,74.20
2017-09-19T15:39:05.682Z,74.20
2017-09-19T15:41:34.179Z,73.30
2017-09-19T15:44:02.420Z,72.60
2017-09-19T15:46:31.433Z,72.20
2017-09-19T15:48:59.731Z,72.20
2017-09-19T15:51:28.013Z,71.30
2017-09-19T15:53:56.286Z,69.70
2017-09-19T15:56:24.570Z,69.80
2017-09-19T15:58:52.843Z,69.50
2017-09-19T16:01:21.069Z,69.80
2017-09-19T16:03:49.313Z,70.50
2017-09-19T16:06:17.574Z,71.40
2017-09-19T16:08:45.923Z,72.90
2017-09-19T16:11:14.192Z,72.80
2017-09-19T16:13:42.471Z,73.00
2017-09-19T16:16:10.738Z,73.50
2017-09-19T16:18:38.991Z,73.60
2017-09-19T16:21:07.268Z,72.70
2017-09-19T16:23:35.515Z,72.70
2017-09-19T16:26:03.865Z,73.20
2017-09-19T16:28:32.147Z,75.40
2017-09-19T16:31:00.454Z,74.80
2017-09-19T16:33:30.221Z,75.30
2017-09-19T16:35:58.504Z,75.20
2017-09-19T16:38:26.769Z,75.40
2017-09-19T16:40:55.116Z,75.30
2017-09-19T16:43:24.870Z,75.20
2017-09-19T16:45:53.113Z,75.20
2017-09-19T16:48:21.382Z,75.30
2017-09-19T16:50:49.737Z,75.70
2017-09-19T16:53:18.013Z,76.40
2017-09-19T16:55:46.286Z,76.60
2017-09-19T16:58:14.572Z,76.20
2017-09-19T17:00:42.805Z,76.10
2017-09-19T17:03:11.878Z,76.10
2017-09-19T17:05:40.164Z,75.90
2017-09-19T17:08:08.414Z,75.70
2017-09-19T17:10:36.690Z,76.20
2017-09-19T17:13:05.345Z,76.80
2017-09-19T17:15:35.083Z,76.80
2017-09-19T17:18:03.341Z,77.00
2017-09-19T17:20:32.351Z,77.80
2017-09-19T17:23:01.387Z,77.90
2017-09-19T17:25:29.630Z,77.90
2017-09-19T17:27:57.929Z,78.10
2017-09-19T17:30:26.179Z,77.60
2017-09-19T17:32:55.207Z,77.00
2017-09-19T17:35:23.494Z,77.00
2017-09-19T17:37:51.746Z,77.40
2017-09-19T17:40:20.121Z,77.60
2017-09-19T17:42:48.457Z,77.60
2017-09-19T17:45:16.812Z,78.10
2017-09-19T17:47:45.719Z,78.00
2017-09-19T17:50:14.127Z,77.90
2017-09-19T17:52:42.392Z,78.20
2017-09-19T17:55:10.658Z,78.30
2017-09-19T17:57:38.895Z,78.40
2017-09-19T18:00:07.163Z,78.40
2017-09-19T18:02:35.408Z,78.30
2017-09-19T18:05:03.691Z,78.40
2017-09-19T18:07:31.926Z,78.20
2017-09-19T18:10:00.949Z,79.10
2017-09-19T18:12:29.251Z,79.10
2017-09-19T18:14:57.524Z,79.30
2017-09-19T18:17:25.809Z,79.80
2017-09-19T18:19:54.092Z,80.20
2017-09-19T18:22:22.329Z,80.20
2017-09-19T18:24:51.367Z,80.60
2017-09-19T18:27:19.622Z,80.60
2017-09-19T18:29:47.887Z,80.30
2017-09-19T18:32:16.895Z,80.80
2017-09-19T18:34:45.150Z,80.80
2017-09-19T18:37:14.159Z,80.70
2017-09-19T18:39:42.419Z,80.70
2017-09-19T18:42:10.661Z,80.80
2017-09-19T18:44:38.951Z,81.00
2017-09-19T18:47:07.205Z,81.10
2017-09-19T18:49:36.253Z,80.00
2017-09-19T18:52:04.491Z,80.00
2017-09-19T18:54:33.676Z,79.50
2017-09-19T18:57:02.724Z,79.60
2017-09-19T18:59:31.014Z,79.50
2017-09-19T19:01:59.274Z,79.60
2017-09-19T19:04:27.533Z,79.60
2017-09-19T19:06:56.567Z,79.60
2017-09-19T19:09:24.850Z,79.60
2017-09-19T19:11:53.122Z,79.60
2017-09-19T19:14:21.415Z,79.40
2017-09-19T19:16:49.704Z,79.50
2017-09-19T19:19:17.969Z,79.70
2017-09-19T19:21:46.239Z,79.60
2017-09-19T19:24:14.528Z,80.00
2017-09-19T19:26:42.843Z,80.10
2017-09-19T19:29:11.104Z,80.10
2017-09-19T19:31:39.360Z,80.40
2017-09-19T19:34:07.641Z,80.80
2017-09-19T19:36:35.913Z,80.80
2017-09-19T19:39:04.171Z,80.80
2017-09-19T19:41:33.202Z,81.30
2017-09-19T19:44:01.457Z,81.30
2017-09-19T19:46:30.499Z,81.40
2017-09-19T19:48:59.827Z,81.50
2017-09-19T19:51:28.096Z,81.40
2017-09-19T19:53:56.348Z,81.60
2017-09-19T19:56:24.606Z,81.90
2017-09-19T19:58:52.910Z,82.20
2017-09-19T20:01:21.203Z,81.80
2017-09-19T20:03:49.447Z,82.10
2017-09-19T20:06:17.756Z,82.30
2017-09-19T20:08:46.027Z,82.50
2017-09-19T20:11:14.281Z,82.60
2017-09-19T20:13:43.421Z,83.20
2017-09-19T20:16:11.686Z,83.20
2017-09-19T20:18:40.012Z,83.00
2017-09-19T20:21:08.266Z,82.90
2017-09-19T20:23:36.577Z,82.60
2017-09-19T20:26:04.801Z,82.30
2017-09-19T20:28:33.072Z,83.10
2017-09-19T20:31:02.116Z,83.20
2017-09-19T20:33:30.392Z,83.20
2017-09-19T20:35:58.642Z,83.10
2017-09-19T20:38:26.912Z,82.90
2017-09-19T20:40:56.045Z,82.90
2017-09-19T20:43:24.313Z,82.90
2017-09-19T20:45:52.565Z,82.60
2017-09-19T20:48:21.611Z,82.50
2017-09-19T20:50:49.907Z,82.50
2017-09-19T20:53:18.167Z,82.40
2017-09-19T20:55:47.188Z,82.50
2017-09-19T20:58:15.459Z,82.40
2017-09-19T21:00:43.715Z,82.30
2017-09-19T21:03:17.839Z,82.50
2017-09-19T21:05:51.723Z,82.60
2017-09-19T21:08:26.590Z,83.10
2017-09-19T21:11:00.628Z,83.00
2017-09-19T21:13:34.727Z,83.10
2017-09-19T21:16:08.778Z,83.30
2017-09-19T21:18:42.707Z,83.40
2017-09-19T21:21:10.979Z,83.70
2017-09-19T21:23:39.276Z,83.80
2017-09-19T21:26:07.616Z,84.00
2017-09-19T21:28:35.883Z,84.30
2017-09-19T21:31:04.182Z,84.20
2017-09-19T21:33:32.449Z,84.70
2017-09-19T21:36:00.728Z,84.80
2017-09-19T21:38:29.023Z,85.00
2017-09-19T21:40:57.402Z,85.00
2017-09-19T21:43:25.662Z,85.30
2017-09-19T21:45:53.943Z,85.10
2017-09-19T21:48:22.239Z,85.30
2017-09-19T21:50:50.672Z,85.50
2017-09-19T21:53:18.902Z,85.60
2017-09-19T21:55:47.177Z,85.70
2017-09-19T21:58:15.436Z,85.80
2017-09-19T22:00:44.567Z,85.80
2017-09-19T22:03:12.831Z,86.00
2017-09-19T22:05:41.136Z,86.10
2017-09-19T22:08:09.390Z,86.20
2017-09-19T22:10:37.676Z,86.30
2017-09-19T22:13:06.005Z,86.20
2017-09-19T22:15:34.251Z,86.00
2017-09-19T22:18:02.507Z,86.00
2017-09-19T22:20:30.815Z,85.90
2017-09-19T22:22:59.076Z,85.90
2017-09-19T22:25:27.346Z,86.20
2017-09-19T22:27:55.607Z,86.10
2017-09-19T22:30:25.472Z,87.10
2017-09-19T22:32:53.722Z,87.10
2017-09-19T22:35:22.041Z,87.50
2017-09-19T22:37:50.317Z,87.90
2017-09-19T22:40:18.571Z,88.40
2017-09-19T22:42:47.596Z,88.00
2017-09-19T22:45:15.879Z,88.00
2017-09-19T22:47:44.149Z,88.10
2017-09-19T22:50:12.390Z,88.50
2017-09-19T22:52:41.458Z,88.80
2017-09-19T22:55:09.710Z,88.80
2017-09-19T22:57:38.011Z,88.70
2017-09-19T23:00:06.258Z,88.10
2017-09-19T23:02:34.562Z,87.80
2017-09-19T23:05:02.839Z,88.00
2017-09-19T23:07:31.168Z,88.60
2017-09-19T23:10:00.934Z,88.10
2017-09-19T23:12:29.190Z,88.10
2017-09-19T23:14:57.537Z,87.90
2017-09-19T23:17:25.882Z,87.80
2017-09-19T23:19:54.169Z,88.00
2017-09-19T23:22:22.464Z,88.00
2017-09-19T23:24:50.723Z,88.20
2017-09-19T23:27:19.012Z,87.90
2017-09-19T23:29:47.262Z,88.00
2017-09-19T23:32:15.575Z,88.20
2017-09-19T23:34:43.835Z,88.30
2017-09-19T23:37:12.112Z,88.50
2017-09-19T23:39:40.371Z,88.70
2017-09-19T23:42:08.619Z,88.70
2017-09-19T23:44:36.997Z,89.00
2017-09-19T23:47:05.246Z,89.30
2017-09-19T23:49:33.550Z,89.20
2017-09-19T23:52:01.826Z,89.30
2017-09-19T23:54:30.092Z,89.30
2017-09-19T23:56:58.347Z,89.40
2017-09-19T23:59:27.394Z,89.50
